createdAt,value
2023-01-17T00:01:50.399Z,0.47
2023-01-17T00:04:36.851Z,0.40
2023-01-17T00:07:22.135Z,0.20
2023-01-17T00:09:57.046Z,0.50
2023-01-17T00:12:27.043Z,0.40
2023-01-17T00:14:56.047Z,0.40
2023-01-17T00:17:24.818Z,0.90
2023-01-17T00:20:11.980Z,0.47
2023-01-17T00:22:57.756Z,0.40
2023-01-17T00:25:46.739Z,0.43
2023-01-17T00:28:13.658Z,0.32
2023-01-17T00:30:40.486Z,0.50
2023-01-17T00:33:07.311Z,0.47
2023-01-17T00:35:35.538Z,0.65
2023-01-17T00:38:04.964Z,0.40
2023-01-17T00:40:32.114Z,0.35
2023-01-17T00:43:17.302Z,0.30
2023-01-17T00:46:03.240Z,0.40
2023-01-17T00:48:49.405Z,1.10
2023-01-17T00:51:36.469Z,0.22
2023-01-17T00:54:22.199Z,0.28
2023-01-17T00:57:07.609Z,0.25
2023-01-17T00:59:53.005Z,0.28
2023-01-17T01:02:38.555Z,0.30
2023-01-17T01:05:24.873Z,0.20
2023-01-17T01:08:12.031Z,0.38
2023-01-17T01:10:57.862Z,0.28
2023-01-17T01:13:43.773Z,0.32
2023-01-17T01:16:29.690Z,0.45
2023-01-17T01:19:15.109Z,0.30
2023-01-17T01:22:00.858Z,0.32
2023-01-17T01:24:48.043Z,0.20
2023-01-17T01:27:33.901Z,0.40
2023-01-17T01:30:19.215Z,0.40
2023-01-17T01:33:05.330Z,0.15
2023-01-17T01:35:33.301Z,0.35
2023-01-17T01:38:03.476Z,0.20
2023-01-17T01:40:33.234Z,0.17
2023-01-17T01:43:05.707Z,0.50
2023-01-17T01:48:05.008Z,0.30
2023-01-17T01:50:36.037Z,0.40
2023-01-17T01:53:07.232Z,0.30
2023-01-17T01:55:40.518Z,0.50
2023-01-17T01:58:14.218Z,0.30
2023-01-17T02:00:42.737Z,0.10
2023-01-17T02:03:14.771Z,0.40
2023-01-17T02:05:44.027Z,0.30
2023-01-17T02:08:15.417Z,0.38
2023-01-17T02:10:45.201Z,0.20
2023-01-17T02:13:16.078Z,0.30
2023-01-17T02:15:54.768Z,0.20
2023-01-17T02:18:30.205Z,0.30
2023-01-17T02:21:28.204Z,0.35
2023-01-17T02:24:40.635Z,0.30
2023-01-17T02:27:23.291Z,0.20
2023-01-17T02:33:13.418Z,0.30
2023-01-17T02:35:49.435Z,0.28
2023-01-17T02:38:31.490Z,0.20
2023-01-17T02:41:05.248Z,0.30
2023-01-17T02:43:35.201Z,0.30
2023-01-17T02:46:03.274Z,0.20
2023-01-17T02:48:34.259Z,0.40
2023-01-17T02:51:21.178Z,0.22
2023-01-17T02:54:04.531Z,0.20
2023-01-17T02:56:45.619Z,0.20
2023-01-17T02:59:26.960Z,0.30
2023-01-17T03:02:08.199Z,0.40
2023-01-17T03:04:41.466Z,0.20
2023-01-17T03:07:16.327Z,0.20
2023-01-17T03:09:45.966Z,0.30
2023-01-17T03:12:14.453Z,0.20
2023-01-17T03:14:42.333Z,0.10
2023-01-17T03:17:10.468Z,0.20
2023-01-17T03:19:39.889Z,0.30
2023-01-17T03:22:07.951Z,0.30
2023-01-17T03:24:35.852Z,0.32
2023-01-17T03:27:03.844Z,0.30
2023-01-17T03:29:31.753Z,0.30
2023-01-17T03:31:59.777Z,0.20
2023-01-17T03:34:27.734Z,0.45
2023-01-17T03:36:57.129Z,0.20
2023-01-17T03:39:25.183Z,0.28
2023-01-17T03:41:53.162Z,0.30
2023-01-17T03:44:21.144Z,0.40
2023-01-17T03:46:49.022Z,0.38
2023-01-17T03:49:17.050Z,0.20
2023-01-17T03:51:45.080Z,0.20
2023-01-17T03:54:14.438Z,0.40
2023-01-17T03:56:42.295Z,0.20
2023-01-17T03:59:13.045Z,0.38
2023-01-17T04:01:41.446Z,0.20
2023-01-17T04:04:09.455Z,0.40
2023-01-17T04:06:37.387Z,0.30
2023-01-17T04:09:05.349Z,0.63
2023-01-17T04:11:34.845Z,0.17
2023-01-17T04:14:02.957Z,0.52
2023-01-17T04:16:32.907Z,0.35
2023-01-17T04:19:00.977Z,0.10
2023-01-17T04:21:28.820Z,0.20
2023-01-17T04:23:56.744Z,0.15
2023-01-17T04:26:24.669Z,0.30
2023-01-17T04:28:54.025Z,0.30
2023-01-17T04:31:22.089Z,0.20
2023-01-17T04:33:49.998Z,0.52
2023-01-17T04:36:18.027Z,0.38
2023-01-17T04:38:45.977Z,0.25
2023-01-17T04:41:13.853Z,0.20
2023-01-17T04:43:41.809Z,0.40
2023-01-17T04:46:11.175Z,0.43
2023-01-17T04:48:39.210Z,0.45
2023-01-17T04:51:07.470Z,0.40
2023-01-17T04:53:35.466Z,0.28
2023-01-17T04:56:03.627Z,0.68
2023-01-17T04:58:33.302Z,0.25
2023-01-17T05:01:04.108Z,0.35
2023-01-17T05:03:33.825Z,0.20
2023-01-17T05:06:01.981Z,0.38
2023-01-17T05:08:29.949Z,0.90
2023-01-17T05:10:58.082Z,1.65
2023-01-17T05:13:26.145Z,2.08
2023-01-17T05:16:09.610Z,0.60
2023-01-17T05:18:42.050Z,0.55
2023-01-17T05:21:09.946Z,1.13
2023-01-17T05:23:37.966Z,0.70
2023-01-17T05:26:06.012Z,0.68
2023-01-17T05:28:33.903Z,0.50
2023-01-17T05:31:01.888Z,0.43
2023-01-17T05:33:30.045Z,0.82
2023-01-17T05:35:59.751Z,0.80
2023-01-17T05:38:27.679Z,0.65
2023-01-17T05:40:55.632Z,1.48
2023-01-17T05:43:23.777Z,0.68
2023-01-17T05:45:51.683Z,0.63
2023-01-17T05:48:19.590Z,0.60
2023-01-17T05:50:47.896Z,0.65
2023-01-17T05:53:18.060Z,0.70
2023-01-17T05:55:46.122Z,0.50
2023-01-17T05:58:16.232Z,0.70
2023-01-17T06:00:44.788Z,0.50
2023-01-17T06:03:12.877Z,0.60
2023-01-17T06:05:41.362Z,0.43
2023-01-17T06:08:09.417Z,0.65
2023-01-17T06:10:38.776Z,0.45
2023-01-17T06:13:08.038Z,0.50
2023-01-17T06:15:36.785Z,0.73
2023-01-17T06:18:06.655Z,0.50
2023-01-17T06:20:34.958Z,0.47
2023-01-17T06:23:04.316Z,0.50
2023-01-17T06:25:36.677Z,0.40
2023-01-17T06:28:06.307Z,0.43
2023-01-17T06:30:34.692Z,0.77
2023-01-17T06:33:02.824Z,0.50
2023-01-17T06:35:31.268Z,0.60
2023-01-17T06:38:00.418Z,0.60
2023-01-17T06:40:29.870Z,0.50
2023-01-17T06:43:01.469Z,0.70
2023-01-17T06:45:31.177Z,0.40
2023-01-17T06:47:59.778Z,0.70
2023-01-17T06:50:28.359Z,0.68
2023-01-17T06:52:57.109Z,0.73
2023-01-17T06:55:26.520Z,0.70
2023-01-17T06:57:55.398Z,0.90
2023-01-17T07:00:23.635Z,0.80
2023-01-17T07:02:53.318Z,0.57
2023-01-17T07:05:21.511Z,0.50
2023-01-17T07:07:49.497Z,0.70
2023-01-17T07:10:17.871Z,0.77
2023-01-17T07:12:45.824Z,1.48
2023-01-17T07:15:14.142Z,0.90
2023-01-17T07:17:42.252Z,1.05
2023-01-17T07:20:13.401Z,0.68
2023-01-17T07:22:45.191Z,0.70
2023-01-17T07:25:13.267Z,0.80
2023-01-17T07:27:41.156Z,0.98
2023-01-17T07:30:10.688Z,0.70
2023-01-17T07:32:38.741Z,0.77
2023-01-17T07:35:07.585Z,0.70
2023-01-17T07:37:36.934Z,0.65
2023-01-17T07:40:05.477Z,0.77
2023-01-17T07:42:33.509Z,1.80
2023-01-17T07:45:02.268Z,1.25
2023-01-17T07:47:30.232Z,0.60
2023-01-17T07:49:58.173Z,0.70
2023-01-17T07:52:26.047Z,0.80
2023-01-17T07:54:55.330Z,0.60
2023-01-17T07:57:23.504Z,0.63
2023-01-17T07:59:52.211Z,0.50
2023-01-17T08:02:22.537Z,0.90
2023-01-17T08:04:50.985Z,0.80
2023-01-17T08:07:18.911Z,0.90
2023-01-17T08:09:49.641Z,0.60
2023-01-17T08:12:19.169Z,0.80
2023-01-17T08:14:47.180Z,0.70
2023-01-17T08:17:16.999Z,0.77
2023-01-17T08:19:45.231Z,0.70
2023-01-17T08:22:13.531Z,0.50
2023-01-17T08:24:41.886Z,0.57
2023-01-17T08:27:10.165Z,0.80
2023-01-17T08:29:42.055Z,0.90
2023-01-17T08:32:10.054Z,0.80
2023-01-17T08:34:37.978Z,0.85
2023-01-17T08:37:05.965Z,0.80
2023-01-17T08:39:34.271Z,0.60
2023-01-17T08:42:02.246Z,0.70
2023-01-17T08:44:30.272Z,0.60
2023-01-17T08:47:00.650Z,0.60
2023-01-17T08:49:28.606Z,0.90
2023-01-17T08:51:56.606Z,0.73
2023-01-17T08:54:24.630Z,0.60
2023-01-17T08:56:55.473Z,0.82
2023-01-17T08:59:23.448Z,1.15
2023-01-17T09:01:52.372Z,1.52
2023-01-17T09:04:21.978Z,1.42
2023-01-17T09:06:50.114Z,1.80
2023-01-17T09:09:18.771Z,1.60
2023-01-17T09:11:46.625Z,0.90
2023-01-17T09:14:15.481Z,0.98
2023-01-17T09:16:43.497Z,1.48
2023-01-17T09:19:11.394Z,2.10
2023-01-17T09:21:40.791Z,1.70
2023-01-17T09:24:08.980Z,1.90
2023-01-17T09:26:37.231Z,2.25
2023-01-17T09:29:05.249Z,1.50
2023-01-17T09:31:33.363Z,1.13
2023-01-17T09:34:01.354Z,1.17
2023-01-17T09:36:31.763Z,1.52
2023-01-17T09:39:02.146Z,1.10
2023-01-17T09:41:32.721Z,2.30
2023-01-17T09:44:08.523Z,3.00
2023-01-17T09:46:42.165Z,1.98
2023-01-17T09:49:15.523Z,3.17
2023-01-17T09:51:43.617Z,3.25
2023-01-17T09:54:22.788Z,5.30
2023-01-17T09:57:01.198Z,2.25
2023-01-17T09:59:37.554Z,4.78
2023-01-17T10:02:17.092Z,2.40
2023-01-17T10:05:05.990Z,2.25
2023-01-17T10:07:43.050Z,3.70
2023-01-17T10:10:28.032Z,2.33
2023-01-17T10:13:00.516Z,2.38
2023-01-17T10:18:45.542Z,1.50
2023-01-17T10:21:17.808Z,2.17
2023-01-17T10:24:08.758Z,1.95
2023-01-17T10:26:38.866Z,1.48
2023-01-17T10:29:15.992Z,2.10
2023-01-17T10:31:51.119Z,1.73
2023-01-17T10:34:22.914Z,2.00
2023-01-17T10:36:55.032Z,2.67
2023-01-17T10:39:24.886Z,2.30
2023-01-17T10:41:58.377Z,1.35
2023-01-17T10:44:34.106Z,1.65
2023-01-17T10:47:13.508Z,1.35
2023-01-17T10:49:46.262Z,1.23
2023-01-17T10:52:20.425Z,1.50
2023-01-17T10:54:59.100Z,1.15
2023-01-17T10:57:29.124Z,1.90
2023-01-17T11:00:06.306Z,2.08
2023-01-17T11:02:39.881Z,1.52
2023-01-17T11:05:19.304Z,1.35
2023-01-17T11:07:58.682Z,0.73
2023-01-17T11:10:40.907Z,0.80
2023-01-17T11:13:25.724Z,1.25
2023-01-17T11:15:57.672Z,1.17
2023-01-17T11:18:28.478Z,0.68
2023-01-17T11:21:12.021Z,0.90
2023-01-17T11:23:42.345Z,1.30
2023-01-17T11:26:13.595Z,0.65
2023-01-17T11:28:42.904Z,0.68
2023-01-17T11:31:26.889Z,0.93
2023-01-17T11:34:14.245Z,0.77
2023-01-17T11:36:42.563Z,0.70
2023-01-17T11:39:27.591Z,0.77
2023-01-17T11:41:55.833Z,0.70
2023-01-17T11:44:27.805Z,0.50
2023-01-17T11:47:21.785Z,0.52
2023-01-17T11:49:50.669Z,0.60
2023-01-17T11:52:24.562Z,2.53
2023-01-17T11:54:55.459Z,1.38
2023-01-17T11:57:27.063Z,1.30
2023-01-17T12:00:04.710Z,1.30
2023-01-17T12:02:51.830Z,1.25
2023-01-17T12:05:33.733Z,0.50
2023-01-17T12:08:10.910Z,0.93
2023-01-17T12:10:49.000Z,0.50
2023-01-17T12:13:45.382Z,1.00
2023-01-17T12:16:31.227Z,0.85
2023-01-17T12:19:32.189Z,0.30
2023-01-17T12:22:17.466Z,0.57
2023-01-17T12:25:04.010Z,0.63
2023-01-17T12:27:40.300Z,0.45
2023-01-17T12:30:33.164Z,0.40
2023-01-17T12:33:19.172Z,0.52
2023-01-17T12:35:53.000Z,0.40
2023-01-17T12:38:32.844Z,0.40
2023-01-17T12:41:07.738Z,0.95
2023-01-17T12:43:38.766Z,0.82
2023-01-17T12:46:16.879Z,0.82
2023-01-17T12:48:46.598Z,0.98
2023-01-17T12:51:18.944Z,0.50
2023-01-17T12:53:56.845Z,0.52
2023-01-17T12:56:30.037Z,0.70
2023-01-17T12:59:07.204Z,0.60
2023-01-17T13:01:39.838Z,0.50
2023-01-17T13:04:19.436Z,0.88
2023-01-17T13:06:57.690Z,0.73
2023-01-17T13:09:28.010Z,1.02
2023-01-17T13:12:01.252Z,0.70
2023-01-17T13:14:29.262Z,0.80
2023-01-17T13:16:59.773Z,0.52
2023-01-17T13:19:42.457Z,0.50
2023-01-17T13:22:17.333Z,0.70
2023-01-17T13:24:55.327Z,0.55
2023-01-17T13:27:33.655Z,0.63
2023-01-17T13:30:16.097Z,0.52
2023-01-17T13:33:03.319Z,2.20
2023-01-17T13:35:41.950Z,0.88
2023-01-17T13:38:31.611Z,0.47
2023-01-17T13:41:07.264Z,0.47
2023-01-17T13:43:39.283Z,0.52
2023-01-17T13:46:07.969Z,0.40
2023-01-17T13:48:37.649Z,0.35
2023-01-17T13:51:08.300Z,0.43
2023-01-17T13:53:54.938Z,0.50
2023-01-17T13:56:32.842Z,0.50
2023-01-17T13:59:06.358Z,0.63
2023-01-17T14:01:53.587Z,0.50
2023-01-17T14:04:22.974Z,0.50
2023-01-17T14:06:55.520Z,1.05
2023-01-17T14:12:06.209Z,0.50
2023-01-17T14:14:50.437Z,0.30
2023-01-17T14:17:56.946Z,0.43
2023-01-17T14:21:04.290Z,1.02
2023-01-17T14:23:59.315Z,0.50
2023-01-17T14:26:41.199Z,0.63
2023-01-17T14:29:46.639Z,0.47
2023-01-17T14:32:16.891Z,0.57
2023-01-17T14:34:47.250Z,0.30
2023-01-17T14:37:21.517Z,0.52
2023-01-17T14:39:52.385Z,0.40
2023-01-17T14:42:23.524Z,0.75
2023-01-17T14:45:01.783Z,0.68
2023-01-17T14:47:33.102Z,0.60
2023-01-17T14:50:22.592Z,0.75
2023-01-17T14:53:09.275Z,0.40
2023-01-17T14:55:39.282Z,0.80
2023-01-17T14:58:07.645Z,0.90
2023-01-17T15:00:40.739Z,1.15
2023-01-17T15:03:14.510Z,0.90
2023-01-17T15:05:47.306Z,0.60
2023-01-17T15:08:18.573Z,0.70
2023-01-17T15:10:54.000Z,0.65
2023-01-17T15:13:35.589Z,0.63
2023-01-17T15:16:21.225Z,0.73
2023-01-17T15:18:50.534Z,0.90
2023-01-17T15:21:21.113Z,0.50
2023-01-17T15:23:52.964Z,1.08
2023-01-17T15:26:25.147Z,0.98
2023-01-17T15:28:54.385Z,0.77
2023-01-17T15:31:25.512Z,0.77
2023-01-17T15:33:58.427Z,0.80
2023-01-17T15:36:32.974Z,0.50
2023-01-17T15:39:03.520Z,0.82
2023-01-17T15:41:35.544Z,1.52
2023-01-17T15:44:04.910Z,0.60
2023-01-17T15:46:41.500Z,0.50
2023-01-17T15:49:17.846Z,0.40
2023-01-17T15:51:52.715Z,0.60
2023-01-17T15:54:44.321Z,0.40
2023-01-17T15:57:24.399Z,0.55
2023-01-17T16:00:05.646Z,0.65
2023-01-17T16:02:43.582Z,0.63
2023-01-17T16:05:34.592Z,1.25
2023-01-17T16:08:25.897Z,0.68
2023-01-17T16:10:56.727Z,0.77
2023-01-17T16:13:26.038Z,0.88
2023-01-17T16:15:54.324Z,0.52
2023-01-17T16:18:25.601Z,0.57
2023-01-17T16:21:00.343Z,0.80
2023-01-17T16:23:28.660Z,0.70
2023-01-17T16:25:56.781Z,0.60
2023-01-17T16:28:26.314Z,0.98
2023-01-17T16:30:54.957Z,1.45
2023-01-17T16:33:23.139Z,1.15
2023-01-17T16:35:54.533Z,0.70
2023-01-17T16:38:22.669Z,0.77
2023-01-17T16:40:50.690Z,0.90
2023-01-17T16:43:20.078Z,0.80
2023-01-17T16:45:54.022Z,0.55
2023-01-17T16:48:22.938Z,0.80
2023-01-17T16:50:52.909Z,1.17
2023-01-17T16:53:24.901Z,1.45
2023-01-17T16:55:55.845Z,0.98
2023-01-17T16:58:23.998Z,1.25
2023-01-17T17:00:55.359Z,1.00
2023-01-17T17:03:23.926Z,1.08
2023-01-17T17:05:59.269Z,0.80
2023-01-17T17:08:28.958Z,0.93
2023-01-17T17:11:07.070Z,0.95
2023-01-17T17:13:36.277Z,0.85
2023-01-17T17:16:11.061Z,1.25
2023-01-17T17:18:39.137Z,1.33
2023-01-17T17:21:07.208Z,2.60
2023-01-17T17:23:35.243Z,2.20
2023-01-17T17:26:03.345Z,1.30
2023-01-17T17:28:31.358Z,4.05
2023-01-17T17:31:06.229Z,3.85
2023-01-17T17:33:35.019Z,2.67
2023-01-17T17:36:04.451Z,3.83
2023-01-17T17:38:35.068Z,3.13
2023-01-17T17:41:09.591Z,1.30
2023-01-17T17:43:40.749Z,1.98
2023-01-17T17:46:11.057Z,3.25
2023-01-17T17:48:39.092Z,2.20
2023-01-17T17:51:08.294Z,3.42
2023-01-17T17:53:36.579Z,2.28
2023-01-17T17:56:06.737Z,2.13
2023-01-17T17:58:36.027Z,2.50
2023-01-17T18:01:06.516Z,1.73
2023-01-17T18:03:36.313Z,7.65
2023-01-17T18:06:06.328Z,3.80
2023-01-17T18:08:35.131Z,8.50
2023-01-17T18:11:04.593Z,7.47
2023-01-17T18:13:33.884Z,3.17
2023-01-17T18:16:05.528Z,3.05
2023-01-17T18:18:37.225Z,3.25
2023-01-17T18:21:07.516Z,2.63
2023-01-17T18:23:35.628Z,7.30
2023-01-17T18:26:03.688Z,6.60
2023-01-17T18:28:32.308Z,4.90
2023-01-17T18:31:06.324Z,4.60
2023-01-17T18:33:40.017Z,3.78
2023-01-17T18:36:09.669Z,7.90
2023-01-17T18:38:41.807Z,3.30
2023-01-17T18:41:11.645Z,2.30
2023-01-17T18:43:39.934Z,2.67
2023-01-17T18:46:08.778Z,2.65
2023-01-17T18:48:38.525Z,2.17
2023-01-17T18:51:09.543Z,3.42
2023-01-17T18:53:39.674Z,2.85
2023-01-17T18:56:10.096Z,9.07
2023-01-17T18:58:40.843Z,2.85
2023-01-17T19:01:10.490Z,2.70
2023-01-17T19:03:42.496Z,2.58
2023-01-17T19:06:14.664Z,7.68
2023-01-17T19:08:43.613Z,3.03
2023-01-17T19:11:12.360Z,8.25
2023-01-17T19:13:41.805Z,5.30
2023-01-17T19:16:14.464Z,2.67
2023-01-17T19:18:44.108Z,7.35
2023-01-17T19:21:14.321Z,5.28
2023-01-17T19:23:43.576Z,3.58
2023-01-17T19:26:13.447Z,7.05
2023-01-17T19:28:42.315Z,3.38
2023-01-17T19:31:12.640Z,3.78
2023-01-17T19:33:43.824Z,4.00
2023-01-17T19:36:16.893Z,3.13
2023-01-17T19:38:55.200Z,3.83
2023-01-17T19:41:31.260Z,4.10
2023-01-17T19:44:01.082Z,3.95
2023-01-17T19:46:29.643Z,3.83
2023-01-17T19:48:59.514Z,3.88
2023-01-17T19:51:28.438Z,4.07
2023-01-17T19:53:58.879Z,3.78
2023-01-17T19:56:27.905Z,3.55
2023-01-17T19:59:00.524Z,3.70
2023-01-17T20:01:30.660Z,3.33
2023-01-17T20:04:01.563Z,3.40
2023-01-17T20:06:31.832Z,3.08
2023-01-17T20:08:59.890Z,3.58
2023-01-17T20:11:29.120Z,2.97
2023-01-17T20:13:58.916Z,3.25
2023-01-17T20:16:28.990Z,3.33
2023-01-17T20:19:00.270Z,3.70
2023-01-17T20:21:29.505Z,3.00
2023-01-17T20:23:59.139Z,2.83
2023-01-17T20:26:34.390Z,3.55
2023-01-17T20:29:04.184Z,2.80
2023-01-17T20:31:33.531Z,2.95
2023-01-17T20:34:03.029Z,3.28
2023-01-17T20:36:31.493Z,3.28
2023-01-17T20:39:00.830Z,3.33
2023-01-17T20:41:31.670Z,3.22
2023-01-17T20:44:01.926Z,3.70
2023-01-17T20:46:33.279Z,2.95
2023-01-17T20:49:05.438Z,2.65
2023-01-17T20:51:34.370Z,2.45
2023-01-17T20:54:03.604Z,3.13
2023-01-17T20:56:34.671Z,3.05
2023-01-17T20:59:03.566Z,2.85
2023-01-17T21:01:32.056Z,2.50
2023-01-17T21:04:00.049Z,2.75
2023-01-17T21:06:29.622Z,2.60
2023-01-17T21:08:58.344Z,2.60
2023-01-17T21:11:27.477Z,2.40
2023-01-17T21:13:56.163Z,1.92
2023-01-17T21:16:28.050Z,2.45
2023-01-17T21:18:56.059Z,2.90
2023-01-17T21:21:25.815Z,3.05
2023-01-17T21:23:57.307Z,2.83
2023-01-17T21:26:26.840Z,2.63
2023-01-17T21:28:55.556Z,2.85
2023-01-17T21:31:25.656Z,2.75
2023-01-17T21:33:55.466Z,2.58
2023-01-17T21:36:25.120Z,2.63
2023-01-17T21:38:56.933Z,2.28
2023-01-17T21:41:27.163Z,2.25
2023-01-17T21:43:56.269Z,2.75
2023-01-17T21:46:25.105Z,2.30
2023-01-17T21:48:53.076Z,2.10
2023-01-17T21:51:21.754Z,2.00
2023-01-17T21:53:49.918Z,1.63
2023-01-17T21:56:37.036Z,1.75
2023-01-17T21:59:05.043Z,1.15
2023-01-17T22:01:34.481Z,1.65
2023-01-17T22:04:04.500Z,1.85
2023-01-17T22:06:35.076Z,2.45
2023-01-17T22:09:04.153Z,1.67
2023-01-17T22:11:33.540Z,1.92
2023-01-17T22:14:02.562Z,1.90
2023-01-17T22:16:30.576Z,1.92
2023-01-17T22:18:59.109Z,1.98
2023-01-17T22:21:29.023Z,1.77
2023-01-17T22:23:58.513Z,1.42
2023-01-17T22:26:28.207Z,1.45
2023-01-17T22:29:00.906Z,2.00
2023-01-17T22:31:29.433Z,1.75
2023-01-17T22:33:59.477Z,2.75
2023-01-17T22:36:27.829Z,1.98
2023-01-17T22:38:55.923Z,1.75
2023-01-17T22:41:25.690Z,1.67
2023-01-17T22:43:57.688Z,1.60
2023-01-17T22:46:30.151Z,2.05
2023-01-17T22:48:58.440Z,1.60
2023-01-17T22:51:28.826Z,2.38
2023-01-17T22:53:58.715Z,2.03
2023-01-17T22:56:28.067Z,1.60
2023-01-17T22:58:56.572Z,1.40
2023-01-17T23:01:28.283Z,1.85
2023-01-17T23:03:57.757Z,1.65
2023-01-17T23:06:27.191Z,1.90
2023-01-17T23:08:58.727Z,1.63
2023-01-17T23:11:42.488Z,2.13
2023-01-17T23:14:14.563Z,1.42
2023-01-17T23:17:04.073Z,1.80
2023-01-17T23:19:35.782Z,1.70
2023-01-17T23:22:18.970Z,1.25
2023-01-17T23:24:49.671Z,1.30
2023-01-17T23:27:37.878Z,1.77
2023-01-17T23:30:07.430Z,1.30
2023-01-17T23:32:36.682Z,1.40
2023-01-17T23:35:04.938Z,1.88
2023-01-17T23:37:50.115Z,1.38
2023-01-17T23:40:18.936Z,1.67
2023-01-17T23:43:04.749Z,1.50
2023-01-17T23:45:35.865Z,1.67
2023-01-17T23:48:09.210Z,1.55
2023-01-17T23:50:38.436Z,1.40
2023-01-17T23:53:07.928Z,1.73
2023-01-17T23:55:37.304Z,1.48
2023-01-17T23:58:06.030Z,1.77
